sensor_id;sensor_type;location;lat;lon;timestamp;pressure;altitude;pressure_sealevel;temperature;humidity
7180;BME280;3631;42.152;24.756;2023-10-13T00:01:55;85724.47;;;-144.30;71.87
7180;BME280;3631;42.152;24.756;2023-10-13T00:04:24;85694.63;;;-144.30;72.05
7180;BME280;3631;42.152;24.756;2023-10-13T00:06:51;85722.47;;;-144.30;72.28
7180;BME280;3631;42.152;24.756;2023-10-13T00:09:19;85776.16;;;-144.30;72.96
7180;BME280;3631;42.152;24.756;2023-10-13T00:11:51;85750.31;;;-144.30;73.56
7180;BME280;3631;42.152;24.756;2023-10-13T00:14:19;85756.28;;;-144.30;73.88
7180;BME280;3631;42.152;24.756;2023-10-13T00:16:47;85746.31;;;-144.30;74.31
7180;BME280;3631;42.152;24.756;2023-10-13T00:19:30;85718.50;;;-144.30;74.60
7180;BME280;3631;42.152;24.756;2023-10-13T00:22:05;85770.19;;;-144.30;74.77
7180;BME280;3631;42.152;24.756;2023-10-13T00:24:38;85742.34;;;-144.30;75.06
7180;BME280;3631;42.152;24.756;2023-10-13T00:27:11;85776.16;;;-144.30;75.30
7180;BME280;3631;42.152;24.756;2023-10-13T00:29:53;85764.22;;;-144.30;75.07
7180;BME280;3631;42.152;24.756;2023-10-13T00:32:40;85780.13;;;-144.30;75.45
7180;BME280;3631;42.152;24.756;2023-10-13T00:35:12;85802.00;;;-144.30;75.47
7180;BME280;3631;42.152;24.756;2023-10-13T00:37:50;85782.13;;;-144.30;75.64
7180;BME280;3631;42.152;24.756;2023-10-13T00:40:19;85772.19;;;-144.30;75.33
7180;BME280;3631;42.152;24.756;2023-10-13T00:43:07;85762.22;;;-144.30;75.31
7180;BME280;3631;42.152;24.756;2023-10-13T00:45:50;85738.38;;;-144.30;75.40
7180;BME280;3631;42.152;24.756;2023-10-13T00:48:22;85778.13;;;-144.30;75.65
7180;BME280;3631;42.152;24.756;2023-10-13T00:50:57;85782.13;;;-144.30;75.47
7180;BME280;3631;42.152;24.756;2023-10-13T00:53:28;85738.38;;;-144.30;75.65
7180;BME280;3631;42.152;24.756;2023-10-13T00:55:56;85780.13;;;-144.30;75.90
7180;BME280;3631;42.152;24.756;2023-10-13T00:58:22;85798.03;;;-144.30;75.85
7180;BME280;3631;42.152;24.756;2023-10-13T01:00:53;85792.06;;;-144.30;75.64
7180;BME280;3631;42.152;24.756;2023-10-13T01:03:23;85813.94;;;-144.30;75.35
7180;BME280;3631;42.152;24.756;2023-10-13T01:05:54;85796.03;;;-144.30;75.62
7180;BME280;3631;42.152;24.756;2023-10-13T01:08:32;85798.03;;;-144.30;75.96
7180;BME280;3631;42.152;24.756;2023-10-13T01:11:03;85798.03;;;-144.30;76.04
7180;BME280;3631;42.152;24.756;2023-10-13T01:13:32;85835.78;;;-144.30;76.00
7180;BME280;3631;42.152;24.756;2023-10-13T01:16:02;85833.81;;;-144.30;75.98
7180;BME280;3631;42.152;24.756;2023-10-13T01:18:28;85825.84;;;-144.30;76.11
7180;BME280;3631;42.152;24.756;2023-10-13T01:20:55;85813.94;;;-144.30;75.93
7180;BME280;3631;42.152;24.756;2023-10-13T01:23:26;85829.84;;;-144.30;75.91
7180;BME280;3631;42.152;24.756;2023-10-13T01:25:54;85817.91;;;-144.30;75.89
7180;BME280;3631;42.152;24.756;2023-10-13T01:28:22;85819.88;;;-144.30;75.95
7180;BME280;3631;42.152;24.756;2023-10-13T01:30:49;85815.91;;;-144.30;75.92
7180;BME280;3631;42.152;24.756;2023-10-13T01:33:16;85841.75;;;-144.30;75.63
7180;BME280;3631;42.152;24.756;2023-10-13T01:35:43;85811.94;;;-144.30;75.64
7180;BME280;3631;42.152;24.756;2023-10-13T01:38:13;85835.78;;;-144.30;75.74
7180;BME280;3631;42.152;24.756;2023-10-13T01:40:41;85821.88;;;-144.30;75.96
7180;BME280;3631;42.152;24.756;2023-10-13T01:43:09;85805.97;;;-144.30;75.88
7180;BME280;3631;42.152;24.756;2023-10-13T01:45:37;85790.06;;;-144.30;75.67
7180;BME280;3631;42.152;24.756;2023-10-13T01:48:05;85778.13;;;-144.30;75.36
7180;BME280;3631;42.152;24.756;2023-10-13T01:50:36;85853.69;;;-144.30;75.30
7180;BME280;3631;42.152;24.756;2023-10-13T01:53:02;85855.69;;;-144.30;75.58
7180;BME280;3631;42.152;24.756;2023-10-13T01:55:38;85835.78;;;-144.30;75.59
7180;BME280;3631;42.152;24.756;2023-10-13T01:58:10;85760.25;;;-144.30;75.39
7180;BME280;3631;42.152;24.756;2023-10-13T02:00:41;85798.03;;;-144.30;75.37
7180;BME280;3631;42.152;24.756;2023-10-13T02:03:08;85807.97;;;-144.30;76.15
7180;BME280;3631;42.152;24.756;2023-10-13T02:05:41;85863.63;;;-144.30;76.25
7180;BME280;3631;42.152;24.756;2023-10-13T02:08:13;85837.78;;;-144.30;76.57
7180;BME280;3631;42.152;24.756;2023-10-13T02:10:43;85835.78;;;-144.30;76.78
7180;BME280;3631;42.152;24.756;2023-10-13T02:13:13;85794.03;;;-144.30;76.79
7180;BME280;3631;42.152;24.756;2023-10-13T02:15:44;85885.50;;;-144.30;76.71
7180;BME280;3631;42.152;24.756;2023-10-13T02:18:12;85849.72;;;-144.30;76.84
7180;BME280;3631;42.152;24.756;2023-10-13T02:20:46;85841.75;;;-144.30;77.17
7180;BME280;3631;42.152;24.756;2023-10-13T02:23:20;85837.78;;;-144.30;77.07
7180;BME280;3631;42.152;24.756;2023-10-13T02:25:48;85847.72;;;-144.30;77.70
7180;BME280;3631;42.152;24.756;2023-10-13T02:28:19;85879.53;;;-144.30;77.50
7180;BME280;3631;42.152;24.756;2023-10-13T02:30:53;85865.63;;;-144.30;77.86
7180;BME280;3631;42.152;24.756;2023-10-13T02:33:19;85855.69;;;-144.30;78.26
7180;BME280;3631;42.152;24.756;2023-10-13T02:35:48;85887.50;;;-144.30;78.41
7180;BME280;3631;42.152;24.756;2023-10-13T02:38:20;85897.44;;;-144.30;78.15
7180;BME280;3631;42.152;24.756;2023-10-13T02:41:00;85875.56;;;-144.30;77.91
7180;BME280;3631;42.152;24.756;2023-10-13T02:43:33;85851.69;;;-144.30;78.04
7180;BME280;3631;42.152;24.756;2023-10-13T02:46:01;85825.84;;;-144.30;77.48
7180;BME280;3631;42.152;24.756;2023-10-13T02:48:29;85833.81;;;-144.30;77.61
7180;BME280;3631;42.152;24.756;2023-10-13T02:51:06;85849.72;;;-144.30;77.46
7180;BME280;3631;42.152;24.756;2023-10-13T02:53:41;85889.47;;;-144.30;77.94
7180;BME280;3631;42.152;24.756;2023-10-13T02:56:08;85901.41;;;-144.30;78.23
7180;BME280;3631;42.152;24.756;2023-10-13T02:58:35;85879.53;;;-144.30;78.18
7180;BME280;3631;42.152;24.756;2023-10-13T03:01:06;85853.69;;;-144.30;77.79
7180;BME280;3631;42.152;24.756;2023-10-13T03:03:43;85869.59;;;-144.30;77.62
7180;BME280;3631;42.152;24.756;2023-10-13T03:06:14;85835.78;;;-144.30;77.26
7180;BME280;3631;42.152;24.756;2023-10-13T03:08:40;85821.88;;;-144.30;76.87
7180;BME280;3631;42.152;24.756;2023-10-13T03:11:09;85841.75;;;-144.30;77.36
7180;BME280;3631;42.152;24.756;2023-10-13T03:13:37;85897.44;;;-144.30;77.86
7180;BME280;3631;42.152;24.756;2023-10-13T03:16:13;85897.44;;;-144.30;77.91
7180;BME280;3631;42.152;24.756;2023-10-13T03:18:42;85857.66;;;-144.30;77.76
7180;BME280;3631;42.152;24.756;2023-10-13T03:21:20;85881.53;;;-144.30;77.67
7180;BME280;3631;42.152;24.756;2023-10-13T03:23:55;85907.38;;;-144.30;78.26
7180;BME280;3631;42.152;24.756;2023-10-13T03:26:22;85881.53;;;-144.30;78.82
7180;BME280;3631;42.152;24.756;2023-10-13T03:28:49;85901.41;;;-144.30;79.10
7180;BME280;3631;42.152;24.756;2023-10-13T03:31:19;85853.69;;;-144.30;79.43
7180;BME280;3631;42.152;24.756;2023-10-13T03:33:52;85831.81;;;-144.30;79.27
7180;BME280;3631;42.152;24.756;2023-10-13T03:36:25;85726.44;;;-144.30;79.18
7180;BME280;3631;42.152;24.756;2023-10-13T03:39:09;85897.44;;;-144.30;78.95
7180;BME280;3631;42.152;24.756;2023-10-13T03:41:36;85879.53;;;-144.30;78.83
7180;BME280;3631;42.152;24.756;2023-10-13T03:44:07;85905.38;;;-144.30;78.74
7180;BME280;3631;42.152;24.756;2023-10-13T03:46:38;85899.41;;;-144.30;79.15
7180;BME280;3631;42.152;24.756;2023-10-13T03:49:07;85861.63;;;-144.30;79.35
7180;BME280;3631;42.152;24.756;2023-10-13T03:51:39;85851.69;;;-144.30;79.55
7180;BME280;3631;42.152;24.756;2023-10-13T03:54:06;85901.41;;;-144.30;79.65
7180;BME280;3631;42.152;24.756;2023-10-13T03:56:33;85883.50;;;-144.30;79.79
7180;BME280;3631;42.152;24.756;2023-10-13T03:59:07;85877.53;;;-144.30;80.11
7180;BME280;3631;42.152;24.756;2023-10-13T04:01:43;85905.38;;;-144.30;80.15
7180;BME280;3631;42.152;24.756;2023-10-13T04:04:11;85905.38;;;-144.30;80.57
7180;BME280;3631;42.152;24.756;2023-10-13T04:06:40;85919.31;;;-144.30;81.00
7180;BME280;3631;42.152;24.756;2023-10-13T04:09:39;85837.78;;;-144.30;80.99
7180;BME280;3631;42.152;24.756;2023-10-13T04:12:36;85923.28;;;-144.30;80.80
7180;BME280;3631;42.152;24.756;2023-10-13T04:15:21;85901.41;;;-144.30;80.78
7180;BME280;3631;42.152;24.756;2023-10-13T04:17:53;85867.59;;;-144.30;80.65
7180;BME280;3631;42.152;24.756;2023-10-13T04:20:19;85869.59;;;-144.30;80.58
7180;BME280;3631;42.152;24.756;2023-10-13T04:23:03;85897.44;;;-144.30;80.53
7180;BME280;3631;42.152;24.756;2023-10-13T04:25:43;85909.34;;;-144.30;80.46
7180;BME280;3631;42.152;24.756;2023-10-13T04:28:34;85889.47;;;-144.30;80.31
7180;BME280;3631;42.152;24.756;2023-10-13T04:31:04;85895.44;;;-144.30;80.29
7180;BME280;3631;42.152;24.756;2023-10-13T04:33:50;85889.47;;;-144.30;80.69
7180;BME280;3631;42.152;24.756;2023-10-13T04:36:18;85891.47;;;-144.30;80.72
7180;BME280;3631;42.152;24.756;2023-10-13T04:39:02;85903.41;;;-144.30;80.65
7180;BME280;3631;42.152;24.756;2023-10-13T04:41:36;85841.75;;;-144.30;79.98
7180;BME280;3631;42.152;24.756;2023-10-13T04:44:05;85875.56;;;-144.30;80.02
7180;BME280;3631;42.152;24.756;2023-10-13T04:46:48;85903.41;;;-144.30;79.57
7180;BME280;3631;42.152;24.756;2023-10-13T04:49:34;85867.59;;;-144.30;79.94
7180;BME280;3631;42.152;24.756;2023-10-13T04:52:15;85893.44;;;-144.30;79.60
7180;BME280;3631;42.152;24.756;2023-10-13T04:55:05;85923.28;;;-144.30;79.67
7180;BME280;3631;42.152;24.756;2023-10-13T04:57:50;85925.25;;;-144.30;79.69
7180;BME280;3631;42.152;24.756;2023-10-13T05:00:25;85889.47;;;-144.30;79.58
7180;BME280;3631;42.152;24.756;2023-10-13T05:03:16;85863.63;;;-144.30;78.91
7180;BME280;3631;42.152;24.756;2023-10-13T05:06:01;85859.66;;;-144.30;78.17
7180;BME280;3631;42.152;24.756;2023-10-13T05:08:57;85869.59;;;-144.30;77.48
7180;BME280;3631;42.152;24.756;2023-10-13T05:11:41;85845.75;;;-144.30;76.86
7180;BME280;3631;42.152;24.756;2023-10-13T05:14:26;85768.19;;;-144.30;75.81
7180;BME280;3631;42.152;24.756;2023-10-13T05:17:10;85650.91;;;-144.30;73.04
7180;BME280;3631;42.152;24.756;2023-10-13T05:19:57;85589.28;;;-144.30;66.71
7180;BME280;3631;42.152;24.756;2023-10-13T05:22:42;85418.31;;;-144.30;61.75
7180;BME280;3631;42.152;24.756;2023-10-13T05:25:26;85138.00;;;-144.30;56.47
7180;BME280;3631;42.152;24.756;2023-10-13T05:28:10;85078.38;;;-144.30;49.92
7180;BME280;3631;42.152;24.756;2023-10-13T05:31:09;84951.16;;;-144.30;47.09
7180;BME280;3631;42.152;24.756;2023-10-13T05:33:49;84891.53;;;-144.30;45.78
7180;BME280;3631;42.152;24.756;2023-10-13T05:36:40;84748.44;;;-144.30;44.04
7180;BME280;3631;42.152;24.756;2023-10-13T05:39:24;84583.47;;;-144.30;41.61
7180;BME280;3631;42.152;24.756;2023-10-13T05:42:09;84398.63;;;-144.30;38.75
7180;BME280;3631;42.152;24.756;2023-10-13T05:44:53;84255.53;;;-144.30;37.17
7180;BME280;3631;42.152;24.756;2023-10-13T05:47:42;84164.13;;;-144.30;36.09
7180;BME280;3631;42.152;24.756;2023-10-13T05:50:26;84168.09;;;-144.30;35.58
7180;BME280;3631;42.152;24.756;2023-10-13T05:53:11;84078.69;;;-144.30;35.22
7180;BME280;3631;42.152;24.756;2023-10-13T05:56:00;83943.56;;;-144.30;34.03
7180;BME280;3631;42.152;24.756;2023-10-13T05:58:44;83796.50;;;-144.30;32.49
7180;BME280;3631;42.152;24.756;2023-10-13T06:01:29;83705.09;;;-144.30;31.81
7180;BME280;3631;42.152;24.756;2023-10-13T06:04:13;83633.59;;;-144.30;31.65
7180;BME280;3631;42.152;24.756;2023-10-13T06:07:03;83510.41;;;-144.30;30.95
7180;BME280;3631;42.152;24.756;2023-10-13T06:09:48;83301.78;;;-144.30;29.97
7180;BME280;3631;42.152;24.756;2023-10-13T06:12:32;83337.53;;;-144.30;29.78
7180;BME280;3631;42.152;24.756;2023-10-13T06:15:17;83371.31;;;-144.30;29.05
7180;BME280;3631;42.152;24.756;2023-10-13T06:18:00;83140.84;;;-144.30;28.42
7180;BME280;3631;42.152;24.756;2023-10-13T06:20:44;82979.94;;;-144.30;28.22
7180;BME280;3631;42.152;24.756;2023-10-13T06:23:29;82848.84;;;-144.30;27.33
7180;BME280;3631;42.152;24.756;2023-10-13T06:26:15;82832.94;;;-144.30;27.33
7180;BME280;3631;42.152;24.756;2023-10-13T06:28:59;82765.41;;;-144.30;27.04
7180;BME280;3631;42.152;24.756;2023-10-13T06:31:26;82495.25;;;-144.30;26.49
7180;BME280;3631;42.152;24.756;2023-10-13T06:33:53;82258.91;;;-144.30;25.69
7180;BME280;3631;42.152;24.756;2023-10-13T06:36:21;82870.69;;;-144.30;25.83
7180;BME280;3631;42.152;24.756;2023-10-13T06:38:48;82487.31;;;-144.30;25.88
7180;BME280;3631;42.152;24.756;2023-10-13T06:41:43;82499.22;;;-144.30;25.88
7180;BME280;3631;42.152;24.756;2023-10-13T06:44:10;82574.72;;;-144.30;26.37
7180;BME280;3631;42.152;24.756;2023-10-13T06:46:41;82783.28;;;-144.30;26.61
7180;BME280;3631;42.152;24.756;2023-10-13T06:49:09;83184.56;;;-144.30;27.86
7180;BME280;3631;42.152;24.756;2023-10-13T06:51:38;83500.47;;;-144.30;29.37
7180;BME280;3631;42.152;24.756;2023-10-13T06:54:06;83768.69;;;-144.30;30.96
7180;BME280;3631;42.152;24.756;2023-10-13T06:56:46;83955.47;;;-144.30;32.65
7180;BME280;3631;42.152;24.756;2023-10-13T06:59:17;84140.28;;;-144.30;34.38
7180;BME280;3631;42.152;24.756;2023-10-13T07:01:43;84333.06;;;-144.30;35.78
7180;BME280;3631;42.152;24.756;2023-10-13T07:04:13;84472.16;;;-144.30;37.62
7180;BME280;3631;42.152;24.756;2023-10-13T07:06:41;84557.63;;;-144.30;38.87
7180;BME280;3631;42.152;24.756;2023-10-13T07:09:15;84653.03;;;-144.30;39.98
7180;BME280;3631;42.152;24.756;2023-10-13T07:12:06;84657.00;;;-144.30;41.37
7180;BME280;3631;42.152;24.756;2023-10-13T07:14:45;84768.31;;;-144.30;42.66
7180;BME280;3631;42.152;24.756;2023-10-13T07:17:17;84831.91;;;-144.30;43.91
7180;BME280;3631;42.152;24.756;2023-10-13T07:19:50;84895.50;;;-144.30;44.98
7180;BME280;3631;42.152;24.756;2023-10-13T07:22:21;84955.13;;;-144.30;45.87
7180;BME280;3631;42.152;24.756;2023-10-13T07:24:49;84881.59;;;-144.30;46.68
7180;BME280;3631;42.152;24.756;2023-10-13T07:27:19;84963.09;;;-144.30;47.35
7180;BME280;3631;42.152;24.756;2023-10-13T07:29:50;84994.91;;;-144.30;47.59
7180;BME280;3631;42.152;24.756;2023-10-13T07:32:31;84961.09;;;-144.30;47.85
7180;BME280;3631;42.152;24.756;2023-10-13T07:34:59;84933.28;;;-144.30;47.65
7180;BME280;3631;42.152;24.756;2023-10-13T07:37:35;84935.25;;;-144.30;47.51
7180;BME280;3631;42.152;24.756;2023-10-13T07:40:03;84961.09;;;-144.30;47.43
7180;BME280;3631;42.152;24.756;2023-10-13T07:42:49;84907.44;;;-144.30;47.44
7180;BME280;3631;42.152;24.756;2023-10-13T07:45:16;85018.75;;;-144.30;47.91
7180;BME280;3631;42.152;24.756;2023-10-13T07:47:58;85038.63;;;-144.30;48.26
7180;BME280;3631;42.152;24.756;2023-10-13T07:50:31;84957.13;;;-144.30;48.02
7180;BME280;3631;42.152;24.756;2023-10-13T07:52:59;84955.13;;;-144.30;47.39
7180;BME280;3631;42.152;24.756;2023-10-13T07:55:30;84907.44;;;-144.30;47.04
7180;BME280;3631;42.152;24.756;2023-10-13T07:58:01;84935.25;;;-144.30;46.93
7180;BME280;3631;42.152;24.756;2023-10-13T08:00:33;84947.19;;;-144.30;46.81
7180;BME280;3631;42.152;24.756;2023-10-13T08:03:12;84935.25;;;-144.30;46.88
7180;BME280;3631;42.152;24.756;2023-10-13T08:06:00;84935.25;;;-144.30;46.68
7180;BME280;3631;42.152;24.756;2023-10-13T08:08:32;84941.22;;;-144.30;47.39
7180;BME280;3631;42.152;24.756;2023-10-13T08:11:04;84909.41;;;-144.30;47.18
7180;BME280;3631;42.152;24.756;2023-10-13T08:13:38;84923.34;;;-144.30;47.26
7180;BME280;3631;42.152;24.756;2023-10-13T08:16:12;84935.25;;;-144.30;47.20
7180;BME280;3631;42.152;24.756;2023-10-13T08:18:46;84927.31;;;-144.30;46.87
7180;BME280;3631;42.152;24.756;2023-10-13T08:21:14;84937.25;;;-144.30;46.97
7180;BME280;3631;42.152;24.756;2023-10-13T08:23:45;84895.50;;;-144.30;46.51
7180;BME280;3631;42.152;24.756;2023-10-13T08:26:27;84893.53;;;-144.30;46.67
7180;BME280;3631;42.152;24.756;2023-10-13T08:29:19;84863.72;;;-144.30;46.21
7180;BME280;3631;42.152;24.756;2023-10-13T08:32:14;84851.78;;;-144.30;46.11
7180;BME280;3631;42.152;24.756;2023-10-13T08:34:49;84867.69;;;-144.30;46.13
7180;BME280;3631;42.152;24.756;2023-10-13T08:37:48;84871.66;;;-144.30;46.16
7180;BME280;3631;42.152;24.756;2023-10-13T08:40:27;84871.66;;;-144.30;45.88
7180;BME280;3631;42.152;24.756;2023-10-13T08:43:11;84885.56;;;-144.30;45.40
7180;BME280;3631;42.152;24.756;2023-10-13T08:45:40;84879.59;;;-144.30;45.49
7180;BME280;3631;42.152;24.756;2023-10-13T08:48:24;84804.06;;;-144.30;45.60
7180;BME280;3631;42.152;24.756;2023-10-13T08:50:57;84883.59;;;-144.30;45.14
7180;BME280;3631;42.152;24.756;2023-10-13T08:53:31;84843.84;;;-144.30;45.03
7180;BME280;3631;42.152;24.756;2023-10-13T08:56:00;84859.72;;;-144.30;44.86
7180;BME280;3631;42.152;24.756;2023-10-13T08:58:31;84819.97;;;-144.30;44.59
7180;BME280;3631;42.152;24.756;2023-10-13T09:01:18;84831.91;;;-144.30;44.41
7180;BME280;3631;42.152;24.756;2023-10-13T09:03:59;84841.84;;;-144.30;44.32
7180;BME280;3631;42.152;24.756;2023-10-13T09:06:47;84780.22;;;-144.30;43.96
7180;BME280;3631;42.152;24.756;2023-10-13T09:09:23;84774.25;;;-144.30;43.96
7180;BME280;3631;42.152;24.756;2023-10-13T09:12:00;84800.09;;;-144.30;43.87
7180;BME280;3631;42.152;24.756;2023-10-13T09:14:35;84764.31;;;-144.30;43.77
7180;BME280;3631;42.152;24.756;2023-10-13T09:17:06;84686.81;;;-144.30;43.20
7180;BME280;3631;42.152;24.756;2023-10-13T09:19:48;84696.75;;;-144.30;43.27
7180;BME280;3631;42.152;24.756;2023-10-13T09:22:24;84702.72;;;-144.30;43.02
7180;BME280;3631;42.152;24.756;2023-10-13T09:24:57;84740.47;;;-144.30;42.66
7180;BME280;3631;42.152;24.756;2023-10-13T09:27:27;84700.72;;;-144.30;42.34
7180;BME280;3631;42.152;24.756;2023-10-13T09:29:57;84708.66;;;-144.30;42.23
7180;BME280;3631;42.152;24.756;2023-10-13T09:32:28;84690.78;;;-144.30;42.51
7180;BME280;3631;42.152;24.756;2023-10-13T09:35:00;84676.88;;;-144.30;42.07
7180;BME280;3631;42.152;24.756;2023-10-13T09:37:28;84712.66;;;-144.30;42.12
7180;BME280;3631;42.152;24.756;2023-10-13T09:39:54;84666.94;;;-144.30;41.89
7180;BME280;3631;42.152;24.756;2023-10-13T09:42:30;84700.72;;;-144.30;41.65
7180;BME280;3631;42.152;24.756;2023-10-13T09:44:59;84649.03;;;-144.30;41.16
7180;BME280;3631;42.152;24.756;2023-10-13T09:47:31;84664.94;;;-144.30;40.96
7180;BME280;3631;42.152;24.756;2023-10-13T09:50:02;84591.41;;;-144.30;40.85
7180;BME280;3631;42.152;24.756;2023-10-13T09:52:39;84615.25;;;-144.30;40.46
7180;BME280;3631;42.152;24.756;2023-10-13T09:55:17;84533.78;;;-144.30;40.42
7180;BME280;3631;42.152;24.756;2023-10-13T09:57:51;84573.53;;;-144.30;40.35
7180;BME280;3631;42.152;24.756;2023-10-13T10:00:24;84601.34;;;-144.30;41.51
7180;BME280;3631;42.152;24.756;2023-10-13T10:03:18;84553.66;;;-144.30;40.60
7180;BME280;3631;42.152;24.756;2023-10-13T10:06:05;84555.63;;;-144.30;40.58
7180;BME280;3631;42.152;24.756;2023-10-13T10:08:32;84517.88;;;-144.30;40.29
7180;BME280;3631;42.152;24.756;2023-10-13T10:14:06;84511.91;;;-144.30;39.63
7180;BME280;3631;42.152;24.756;2023-10-13T10:16:41;84513.91;;;-144.30;39.56
7180;BME280;3631;42.152;24.756;2023-10-13T10:19:13;84490.06;;;-144.30;39.65
7180;BME280;3631;42.152;24.756;2023-10-13T10:21:40;84430.44;;;-144.30;39.48
7180;BME280;3631;42.152;24.756;2023-10-13T10:24:15;84494.03;;;-144.30;40.38
7180;BME280;3631;42.152;24.756;2023-10-13T10:26:53;84396.66;;;-144.30;39.56
7180;BME280;3631;42.152;24.756;2023-10-13T10:29:20;84434.41;;;-144.30;39.33
7180;BME280;3631;42.152;24.756;2023-10-13T10:31:47;84438.38;;;-144.30;38.62
7180;BME280;3631;42.152;24.756;2023-10-13T10:34:15;84438.38;;;-144.30;38.37
7180;BME280;3631;42.152;24.756;2023-10-13T10:36:46;84400.63;;;-144.30;38.44
7180;BME280;3631;42.152;24.756;2023-10-13T10:39:13;84406.59;;;-144.30;38.22
7180;BME280;3631;42.152;24.756;2023-10-13T10:41:43;84388.69;;;-144.30;38.22
7180;BME280;3631;42.152;24.756;2023-10-13T10:44:17;84402.59;;;-144.30;38.29
7180;BME280;3631;42.152;24.756;2023-10-13T10:46:48;84438.38;;;-144.30;40.83
7180;BME280;3631;42.152;24.756;2023-10-13T10:49:26;84382.72;;;-144.30;38.31
7180;BME280;3631;42.152;24.756;2023-10-13T10:51:58;84331.06;;;-144.30;37.82
7180;BME280;3631;42.152;24.756;2023-10-13T10:54:29;84307.22;;;-144.30;37.32
7180;BME280;3631;42.152;24.756;2023-10-13T10:56:58;84319.13;;;-144.30;37.38
7180;BME280;3631;42.152;24.756;2023-10-13T10:59:37;84247.59;;;-144.30;37.00
7180;BME280;3631;42.152;24.756;2023-10-13T11:02:04;84327.09;;;-144.30;37.08
7180;BME280;3631;42.152;24.756;2023-10-13T11:04:33;84313.19;;;-144.30;37.57
7180;BME280;3631;42.152;24.756;2023-10-13T11:07:00;84335.03;;;-144.30;37.85
7180;BME280;3631;42.152;24.756;2023-10-13T11:09:27;84346.97;;;-144.30;37.73
7180;BME280;3631;42.152;24.756;2023-10-13T11:12:11;84293.31;;;-144.30;37.64
7180;BME280;3631;42.152;24.756;2023-10-13T11:14:48;84319.13;;;-144.30;37.72
7180;BME280;3631;42.152;24.756;2023-10-13T11:17:19;84225.75;;;-144.30;37.56
7180;BME280;3631;42.152;24.756;2023-10-13T11:19:52;84275.41;;;-144.30;37.38
7180;BME280;3631;42.152;24.756;2023-10-13T11:22:20;84279.38;;;-144.30;37.03
7180;BME280;3631;42.152;24.756;2023-10-13T11:25:00;84247.59;;;-144.30;36.99
7180;BME280;3631;42.152;24.756;2023-10-13T11:27:35;84281.38;;;-144.30;36.84
7180;BME280;3631;42.152;24.756;2023-10-13T11:30:21;84193.94;;;-144.30;36.67
7180;BME280;3631;42.152;24.756;2023-10-13T11:32:59;84191.94;;;-144.30;35.82
7180;BME280;3631;42.152;24.756;2023-10-13T11:35:27;84207.84;;;-144.30;36.03
7180;BME280;3631;42.152;24.756;2023-10-13T11:38:14;84136.31;;;-144.30;35.71
7180;BME280;3631;42.152;24.756;2023-10-13T11:40:51;84158.16;;;-144.30;35.60
7180;BME280;3631;42.152;24.756;2023-10-13T11:43:34;84112.47;;;-144.30;35.53
7180;BME280;3631;42.152;24.756;2023-10-13T11:46:19;84106.50;;;-144.30;35.46
7180;BME280;3631;42.152;24.756;2023-10-13T11:49:00;84074.72;;;-144.30;35.00
7180;BME280;3631;42.152;24.756;2023-10-13T11:51:34;84025.03;;;-144.30;34.77
7180;BME280;3631;42.152;24.756;2023-10-13T11:54:03;84036.94;;;-144.30;34.30
7180;BME280;3631;42.152;24.756;2023-10-13T11:56:30;84007.16;;;-144.30;34.33
7180;BME280;3631;42.152;24.756;2023-10-13T11:58:57;84021.06;;;-144.30;34.30
7180;BME280;3631;42.152;24.756;2023-10-13T12:01:27;84007.16;;;-144.30;34.06
7180;BME280;3631;42.152;24.756;2023-10-13T12:04:23;83945.53;;;-144.30;34.11
7180;BME280;3631;42.152;24.756;2023-10-13T12:07:05;84009.13;;;-144.30;34.14
7180;BME280;3631;42.152;24.756;2023-10-13T12:09:43;84001.19;;;-144.30;33.19
7180;BME280;3631;42.152;24.756;2023-10-13T12:12:29;83997.22;;;-144.30;32.84
7180;BME280;3631;42.152;24.756;2023-10-13T12:14:57;83979.31;;;-144.30;32.92
7180;BME280;3631;42.152;24.756;2023-10-13T12:17:34;83874.00;;;-144.30;32.77
7180;BME280;3631;42.152;24.756;2023-10-13T12:20:04;84005.16;;;-144.30;33.24
7180;BME280;3631;42.152;24.756;2023-10-13T12:22:35;84021.06;;;-144.30;33.13
7180;BME280;3631;42.152;24.756;2023-10-13T12:25:05;83981.31;;;-144.30;32.92
7180;BME280;3631;42.152;24.756;2023-10-13T12:27:45;83973.38;;;-144.30;32.55
7180;BME280;3631;42.152;24.756;2023-10-13T12:30:14;83975.34;;;-144.30;32.63
7180;BME280;3631;42.152;24.756;2023-10-13T12:32:48;83995.22;;;-144.30;32.00
7180;BME280;3631;42.152;24.756;2023-10-13T12:35:33;83987.28;;;-144.30;32.19
7180;BME280;3631;42.152;24.756;2023-10-13T12:38:10;84023.03;;;-144.30;32.10
7180;BME280;3631;42.152;24.756;2023-10-13T12:41:04;84007.16;;;-144.30;32.22
7180;BME280;3631;42.152;24.756;2023-10-13T12:43:49;84036.94;;;-144.30;32.36
7180;BME280;3631;42.152;24.756;2023-10-13T12:46:42;84029.00;;;-144.30;31.88
7180;BME280;3631;42.152;24.756;2023-10-13T12:49:27;84007.16;;;-144.30;31.88
7180;BME280;3631;42.152;24.756;2023-10-13T12:52:16;83991.25;;;-144.30;32.00
7180;BME280;3631;42.152;24.756;2023-10-13T12:54:45;84015.09;;;-144.30;31.91
7180;BME280;3631;42.152;24.756;2023-10-13T12:57:24;84019.06;;;-144.30;31.98
7180;BME280;3631;42.152;24.756;2023-10-13T12:59:51;84023.03;;;-144.30;31.30
7180;BME280;3631;42.152;24.756;2023-10-13T13:02:19;84003.16;;;-144.30;31.27
7180;BME280;3631;42.152;24.756;2023-10-13T13:04:46;84023.03;;;-144.30;30.69
7180;BME280;3631;42.152;24.756;2023-10-13T13:07:20;84019.06;;;-144.30;30.75
7180;BME280;3631;42.152;24.756;2023-10-13T13:09:47;84011.13;;;-144.30;30.57
7180;BME280;3631;42.152;24.756;2023-10-13T13:12:22;84015.09;;;-144.30;30.48
7180;BME280;3631;42.152;24.756;2023-10-13T13:14:50;84029.00;;;-144.30;29.99
7180;BME280;3631;42.152;24.756;2023-10-13T13:17:20;84023.03;;;-144.30;29.75
7180;BME280;3631;42.152;24.756;2023-10-13T13:19:47;83977.34;;;-144.30;29.51
7180;BME280;3631;42.152;24.756;2023-10-13T13:22:14;84287.34;;;-144.30;29.79
7180;BME280;3631;42.152;24.756;2023-10-13T13:24:47;83983.28;;;-144.30;29.77
7180;BME280;3631;42.152;24.756;2023-10-13T13:27:16;83987.28;;;-144.30;29.40
7180;BME280;3631;42.152;24.756;2023-10-13T13:29:45;84031.00;;;-144.30;29.47
7180;BME280;3631;42.152;24.756;2023-10-13T13:32:12;84011.13;;;-144.30;29.57
7180;BME280;3631;42.152;24.756;2023-10-13T13:34:44;83995.22;;;-144.30;29.70